Pagina principale
METAR-TAF:

METAR-TAF

Aeroporti :

Aeroporto militare Mario de Bernardi

Pratica Di Mare, Italia

latitudine: 41-39N, longitudine: 012-27E, altezza: 6 m

Osservazione

Il bollettino è stato emesso 33 minuti fa, alle 13:55 UTC
Vento 7 kt da est/sud-est
Temperature 18°C
Umidità 73%
Pressione 1014 hPa
Visibilità 10 km o più
Nubi sparse ad un'altezza di 3000 ft

METAR: LIRE 061355Z 12007KT 9999 SCT030 18/13 Q1014 RMK BKN SCT200 VIS MIN 9999 WIND THR13 14007KT WIND THR31 /////KT BLU

Ora: 15:28 (14:28 UTC)

Previsione

Il bollettino è stato emesso 3 ore e 28 minuti fa, alle 11:00 UTC
Previsione valida dal 06 alle 12 UTC al 06 alle 21 UTC
Vento 12 kt da sud-est
Visibilità 10 km o più
Poco nuvoloso ad un'altezza di 2500 ft

TAF: LIRE 061100Z 0612/0621 14012KT 9999 FEW025

Osservazioni e previsioni meteorologiche di più di 4000 aeroporti (messaggi METAR e TAF).

Le stazioni disponibili sono rappresentate dai dischi gialli e rossi sulla carta.

Puntare il mouse per vedere il nome della stazione.

Clicca sopra per visualizzare le osservazioni e previsioni meteorologiche.

Per cambiare la mappa : fare clic sui pulsanti verdi con una croce nera per ingrandire, il pulsante verde con un trattino per diminuire, o sulla freccia verde per le mappe adiacenti.


METAR-TAF: